Terminal Aerodrome Forecast
Issued by NWS

Home | Current Version | Previous Version | Text Only | Print | Product List | Glossary On
Versions: 1 2 3 4 5 6 7 8 9 10 11 12 13
017
FTUS42 KTBW 202324
TAFPGD
TAF
KPGD 202324Z 2100/2124 09006KT P6SM VCTS SCT040CB BKN100
      TEMPO 2100/2102 VRB10G25KT 3SM TSRA BKN030CB
     FM210200 07004KT P6SM FEW050 SCT100
     FM211600 05008KT P6SM SCT050 SCT250=

USA.gov is the U.S. government's official web portal to all federal, state and local government web resources and services.